createdAt,value
2017-07-12T10:08:16.957Z,24.50
2017-07-12T10:15:10.420Z,25.10
2017-07-12T10:17:37.968Z,24.80
2017-07-12T10:20:05.556Z,24.40
2017-07-12T10:22:33.533Z,24.20
2017-07-12T10:25:01.167Z,24.30
2017-07-12T10:27:28.730Z,24.50
2017-07-12T10:29:56.677Z,24.70
2017-07-12T10:32:24.285Z,24.70
2017-07-12T10:34:51.959Z,24.40
2017-07-12T10:37:19.516Z,24.30
2017-07-12T10:39:47.173Z,24.20
2017-07-12T10:42:14.742Z,24.00
2017-07-12T10:44:42.344Z,23.90
2017-07-12T10:47:10.012Z,23.70
2017-07-12T10:49:45.949Z,23.70
2017-07-12T10:52:05.226Z,23.90
2017-07-12T10:54:32.828Z,24.10
2017-07-12T10:57:00.481Z,24.00
2017-07-12T10:59:28.320Z,23.90
2017-07-12T11:01:55.944Z,24.00
2017-07-12T11:04:23.512Z,24.00
2017-07-12T11:06:51.098Z,24.20
2017-07-12T11:09:18.701Z,24.40
2017-07-12T11:11:46.367Z,24.60
2017-07-12T11:14:14.714Z,25.00
2017-07-12T11:16:43.230Z,25.40
2017-07-12T11:19:11.639Z,25.70
2017-07-12T11:21:39.250Z,25.70
2017-07-12T11:24:06.926Z,25.70
2017-07-12T11:26:34.542Z,25.90
2017-07-12T11:29:02.134Z,25.90
2017-07-12T11:31:29.756Z,25.80
2017-07-12T11:33:57.394Z,25.90
2017-07-12T11:36:24.936Z,26.00
2017-07-12T11:38:52.594Z,26.20
2017-07-12T11:41:20.139Z,26.60
2017-07-12T11:43:47.741Z,26.80
2017-07-12T11:46:15.309Z,26.70
2017-07-12T11:48:42.980Z,26.60
2017-07-12T11:51:10.570Z,26.40
2017-07-12T11:53:38.932Z,25.80
2017-07-12T11:56:06.565Z,25.80
2017-07-12T11:58:34.220Z,25.80
2017-07-12T12:01:01.837Z,25.80
2017-07-12T12:03:29.464Z,25.70
2017-07-12T12:05:57.060Z,25.30
2017-07-12T12:08:25.030Z,25.00
2017-07-12T12:10:52.653Z,24.60
2017-07-12T12:13:20.351Z,24.70
2017-07-12T12:15:47.985Z,24.80
2017-07-12T12:18:16.411Z,25.10
2017-07-12T12:20:44.114Z,25.00
2017-07-12T12:23:11.866Z,25.20
2017-07-12T12:25:39.493Z,24.90
2017-07-12T12:28:07.171Z,24.80
2017-07-12T12:30:34.831Z,24.90
2017-07-12T12:33:02.419Z,24.80
2017-07-12T12:35:29.992Z,24.70
2017-07-12T12:37:57.624Z,24.70
2017-07-12T12:40:26.002Z,24.60
2017-07-12T12:42:53.544Z,24.50
2017-07-12T12:45:21.964Z,24.90
2017-07-12T12:47:49.614Z,24.90
2017-07-12T12:50:17.306Z,25.00
2017-07-12T12:52:45.039Z,25.00
2017-07-12T12:55:13.627Z,25.40
2017-07-12T12:57:41.341Z,25.40
2017-07-12T13:00:08.982Z,25.50
2017-07-12T13:02:36.569Z,25.70
2017-07-12T13:05:24.108Z,26.00
2017-07-12T13:07:51.724Z,26.60
2017-07-12T13:10:20.133Z,27.40
2017-07-12T13:12:47.810Z,27.40
2017-07-12T13:15:15.457Z,27.50
2017-07-12T13:17:43.899Z,27.60
2017-07-12T13:20:11.556Z,27.50
2017-07-12T13:22:39.159Z,27.50
2017-07-12T13:25:06.834Z,27.40
2017-07-12T13:27:34.449Z,27.40
2017-07-12T13:30:02.172Z,27.30
2017-07-12T13:32:29.779Z,27.20
2017-07-12T13:34:57.442Z,27.20
2017-07-12T13:37:25.051Z,27.30
2017-07-12T13:39:52.629Z,27.30
2017-07-12T13:42:20.191Z,27.40
2017-07-12T13:44:47.805Z,27.00
2017-07-12T13:47:15.360Z,26.60
2017-07-12T13:49:43.029Z,26.80
2017-07-12T13:52:10.601Z,26.40
2017-07-12T13:54:38.217Z,26.30
2017-07-12T13:57:05.849Z,26.10
2017-07-12T13:59:33.427Z,26.20
2017-07-12T14:02:00.963Z,26.30
2017-07-12T14:04:29.312Z,26.50
2017-07-12T14:06:56.848Z,26.40
2017-07-12T14:09:24.441Z,26.30
2017-07-12T14:11:52.740Z,26.40
2017-07-12T14:14:20.380Z,26.40
2017-07-12T14:16:48.192Z,26.50
2017-07-12T14:19:16.519Z,26.40
2017-07-12T14:21:44.207Z,26.30
2017-07-12T14:24:11.801Z,26.40
2017-07-12T14:26:39.540Z,26.30
2017-07-12T14:29:08.082Z,26.20
2017-07-12T14:31:35.685Z,26.50
2017-07-12T14:34:03.233Z,26.60
2017-07-12T14:36:30.840Z,26.80
2017-07-12T14:38:58.391Z,26.90
2017-07-12T14:41:26.007Z,27.00
2017-07-12T14:43:53.548Z,27.00
2017-07-12T14:46:21.131Z,27.20
2017-07-12T14:48:48.768Z,27.50
2017-07-12T14:51:16.421Z,27.20
2017-07-12T14:53:44.009Z,27.30
2017-07-12T14:56:11.606Z,27.10
2017-07-12T14:58:39.155Z,26.50
2017-07-12T15:01:06.748Z,26.00
2017-07-12T15:03:34.312Z,25.90
2017-07-12T15:06:02.734Z,25.30
2017-07-12T15:08:30.992Z,25.00
2017-07-12T15:10:58.586Z,25.00
2017-07-12T15:13:26.889Z,24.50
2017-07-12T15:15:54.472Z,24.50
2017-07-12T15:18:22.017Z,24.60
2017-07-12T15:20:49.596Z,24.60
2017-07-12T15:23:17.136Z,24.60
2017-07-12T15:25:44.738Z,24.50
2017-07-12T15:28:12.324Z,24.40
2017-07-12T15:30:39.924Z,24.20
2017-07-12T15:33:07.478Z,24.20
2017-07-12T15:35:35.068Z,23.70
2017-07-12T15:38:02.641Z,22.90
2017-07-12T15:40:30.232Z,22.30
2017-07-12T15:42:58.553Z,21.70
2017-07-12T15:45:26.138Z,21.70
2017-07-12T15:47:53.684Z,21.60
2017-07-12T15:50:21.225Z,21.50
2017-07-12T15:52:48.818Z,21.50
2017-07-12T15:55:16.386Z,21.50
2017-07-12T15:57:43.997Z,21.40
2017-07-12T16:00:11.571Z,21.50
2017-07-12T16:02:39.192Z,21.60
2017-07-12T16:05:06.747Z,21.80
2017-07-12T16:07:34.324Z,22.00
2017-07-12T16:10:01.864Z,22.20
2017-07-12T16:12:29.445Z,22.30
2017-07-12T16:14:57.757Z,22.40
2017-07-12T16:17:25.329Z,22.40
2017-07-12T16:19:52.872Z,22.50
2017-07-12T16:22:20.454Z,22.60
2017-07-12T16:24:48.759Z,22.50
2017-07-12T16:27:16.360Z,22.50
2017-07-12T16:29:43.947Z,22.30
2017-07-12T16:32:12.333Z,22.10
2017-07-12T16:34:39.894Z,22.00
2017-07-12T16:37:08.290Z,21.60
2017-07-12T16:39:35.880Z,21.60
2017-07-12T16:42:03.528Z,21.60
2017-07-12T16:44:31.112Z,21.50
2017-07-12T16:46:59.432Z,21.40
2017-07-12T16:49:27.018Z,21.40
2017-07-12T16:51:55.332Z,21.20
2017-07-12T16:54:22.940Z,21.20
2017-07-12T16:56:51.269Z,20.90
2017-07-12T16:59:18.979Z,20.90
2017-07-12T17:01:46.566Z,20.70
2017-07-12T17:04:14.174Z,20.60
2017-07-12T17:06:41.885Z,20.60
2017-07-12T17:09:10.239Z,20.40
2017-07-12T17:11:37.794Z,20.40
2017-07-12T17:14:06.148Z,20.30
2017-07-12T17:16:33.700Z,20.20
2017-07-12T17:19:02.053Z,20.20
2017-07-12T17:21:29.601Z,20.20
2017-07-12T17:23:57.952Z,20.30
2017-07-12T17:26:25.501Z,20.20
2017-07-12T17:28:53.092Z,20.20
2017-07-12T17:31:20.645Z,20.30
2017-07-12T17:33:48.247Z,20.30
2017-07-12T17:36:16.583Z,20.40
2017-07-12T17:38:44.217Z,20.40
2017-07-12T17:41:12.105Z,20.50
2017-07-12T17:43:40.471Z,20.50
2017-07-12T17:46:08.794Z,20.40
2017-07-12T17:48:36.385Z,20.40
2017-07-12T17:51:04.694Z,20.50
2017-07-12T17:53:32.249Z,20.40
2017-07-12T17:55:59.826Z,20.50
2017-07-12T17:58:27.364Z,20.50
2017-07-12T18:00:54.932Z,20.40
2017-07-12T18:03:23.248Z,20.30
2017-07-12T18:05:50.835Z,20.30
2017-07-12T18:08:18.369Z,20.10
2017-07-12T18:10:45.988Z,20.00
2017-07-12T18:13:13.683Z,19.90
2017-07-12T18:15:41.984Z,19.60
2017-07-12T18:18:09.553Z,19.60
2017-07-12T18:20:37.129Z,19.60
2017-07-12T18:23:04.663Z,19.60
2017-07-12T18:25:32.251Z,19.50
2017-07-12T18:27:59.793Z,19.40
2017-07-12T18:30:27.848Z,19.40
2017-07-12T18:32:55.662Z,19.30
2017-07-12T18:35:23.304Z,19.40
2017-07-12T18:37:50.907Z,19.40
2017-07-12T18:40:18.457Z,19.50
2017-07-12T18:42:46.234Z,19.50
2017-07-12T18:45:15.001Z,19.50
2017-07-12T18:47:42.669Z,19.50
2017-07-12T18:50:10.218Z,19.40
2017-07-12T18:52:37.802Z,19.40
2017-07-12T18:55:05.357Z,19.30
2017-07-12T18:57:32.937Z,19.20
2017-07-12T19:00:00.540Z,19.20
2017-07-12T19:02:28.109Z,19.30
2017-07-12T19:04:55.641Z,19.30
2017-07-12T19:07:23.355Z,19.20
2017-07-12T19:09:50.967Z,19.20
2017-07-12T19:12:18.509Z,19.20
2017-07-12T19:14:46.084Z,19.20
2017-07-12T19:17:14.413Z,19.00
2017-07-12T19:19:41.998Z,18.90
2017-07-12T19:22:10.311Z,19.00
2017-07-12T19:24:37.888Z,19.00
2017-07-12T19:27:05.444Z,18.90
2017-07-12T19:29:33.807Z,19.00
2017-07-12T19:32:01.351Z,19.00
2017-07-12T19:34:28.929Z,18.90
2017-07-12T19:36:56.487Z,18.90
2017-07-12T19:39:24.029Z,18.90
2017-07-12T19:41:51.616Z,18.90
2017-07-12T19:44:19.157Z,18.80
2017-07-12T19:46:46.704Z,18.80
2017-07-12T19:49:14.345Z,18.90
2017-07-12T19:51:41.903Z,18.90
2017-07-12T19:54:09.472Z,18.90
2017-07-12T19:56:37.781Z,18.90
2017-07-12T19:59:05.345Z,18.90
2017-07-12T20:01:32.916Z,18.90
2017-07-12T20:04:00.647Z,18.90
2017-07-12T20:06:28.196Z,18.90
2017-07-12T20:08:55.758Z,18.90
2017-07-12T20:11:23.296Z,18.80
2017-07-12T20:13:51.151Z,18.80
2017-07-12T20:16:19.487Z,18.90
2017-07-12T20:18:47.138Z,18.90
2017-07-12T20:21:14.728Z,18.90
2017-07-12T20:23:42.342Z,18.90
2017-07-12T20:26:09.971Z,18.90
2017-07-12T20:28:37.550Z,18.90
2017-07-12T20:31:05.978Z,19.00
2017-07-12T20:33:33.530Z,18.90
2017-07-12T20:36:01.247Z,18.90
2017-07-12T20:38:28.813Z,18.90
2017-07-12T20:40:56.389Z,18.90
2017-07-12T20:43:23.936Z,19.00
2017-07-12T20:45:51.521Z,18.90
2017-07-12T20:48:19.106Z,18.90
2017-07-12T20:50:46.791Z,18.90
2017-07-12T20:53:15.132Z,18.90
2017-07-12T20:55:42.726Z,18.90
2017-07-12T20:58:10.452Z,18.90
2017-07-12T21:00:38.092Z,18.90
2017-07-12T21:03:06.453Z,18.90
2017-07-12T21:05:34.033Z,18.90
2017-07-12T21:08:01.694Z,19.00
2017-07-12T21:10:29.947Z,18.80
2017-07-12T21:12:57.536Z,18.80
2017-07-12T21:15:25.100Z,18.80
2017-07-12T21:17:53.444Z,18.70
2017-07-12T21:20:21.667Z,18.70
2017-07-12T21:22:49.353Z,18.80
2017-07-12T21:25:17.261Z,18.70
2017-07-12T21:27:44.905Z,18.60
2017-07-12T21:30:12.675Z,18.50
2017-07-12T21:32:40.336Z,18.60
2017-07-12T21:35:08.187Z,18.60
2017-07-12T21:37:35.736Z,18.60
2017-07-12T21:40:03.311Z,18.50
2017-07-12T21:42:30.855Z,18.60
2017-07-12T21:44:58.424Z,18.70
2017-07-12T21:47:26.584Z,18.60
2017-07-12T21:49:55.051Z,18.50
2017-07-12T21:52:23.508Z,18.50
2017-07-12T21:55:08.607Z,18.50
2017-07-12T21:57:53.801Z,18.60
2017-07-12T22:00:39.033Z,18.60
2017-07-12T22:03:24.233Z,18.60
2017-07-12T22:06:09.371Z,18.60
2017-07-12T22:08:54.424Z,18.50
2017-07-12T22:11:39.550Z,18.50
2017-07-12T22:14:24.665Z,18.40
2017-07-12T22:17:09.737Z,18.40
2017-07-12T22:19:54.874Z,18.30
2017-07-12T22:22:41.021Z,18.30
2017-07-12T22:25:26.161Z,18.20
2017-07-12T22:28:11.674Z,18.20
2017-07-12T22:30:56.683Z,18.20
2017-07-12T22:33:41.962Z,18.20
2017-07-12T22:36:27.871Z,18.10
2017-07-12T22:39:01.184Z,18.10
2017-07-12T22:41:34.329Z,18.00
2017-07-12T22:44:01.413Z,18.10
2017-07-12T22:46:28.955Z,18.10
2017-07-12T22:48:56.537Z,18.00
2017-07-12T22:51:24.083Z,18.00
2017-07-12T22:53:51.675Z,18.10
2017-07-12T22:56:19.210Z,18.00
2017-07-12T22:58:46.789Z,18.10
2017-07-12T23:01:14.349Z,18.00
2017-07-12T23:03:42.688Z,17.90
2017-07-12T23:06:10.233Z,17.90
2017-07-12T23:08:37.816Z,17.90
2017-07-12T23:11:05.356Z,17.90
2017-07-12T23:13:32.940Z,18.00
2017-07-12T23:16:00.480Z,17.90
2017-07-12T23:18:28.048Z,17.90
2017-07-12T23:20:55.590Z,17.80
2017-07-12T23:23:23.199Z,17.80
2017-07-12T23:25:50.757Z,17.90
2017-07-12T23:28:18.321Z,17.80
2017-07-12T23:30:45.904Z,17.80
2017-07-12T23:33:13.522Z,17.90
2017-07-12T23:35:41.093Z,17.80
2017-07-12T23:38:09.404Z,17.70
2017-07-12T23:40:36.977Z,17.70
2017-07-12T23:43:04.509Z,17.80
2017-07-12T23:45:32.079Z,17.80
2017-07-12T23:47:59.616Z,17.80
2017-07-12T23:50:27.188Z,17.90
2017-07-12T23:52:55.502Z,17.80
2017-07-12T23:55:23.083Z,17.80
2017-07-12T23:57:51.489Z,17.90
